createdAt,value
2023-04-22T00:00:23.465Z,13.45
2023-04-22T00:04:35.965Z,9.68
2023-04-22T00:08:48.418Z,11.73
2023-04-22T00:13:01.069Z,13.93
2023-04-22T00:17:13.406Z,10.15
2023-04-22T00:21:25.759Z,13.65
2023-04-22T00:25:38.135Z,8.07
2023-04-22T00:29:50.516Z,9.35
2023-04-22T00:34:04.228Z,11.77
2023-04-22T00:38:16.745Z,11.75
2023-04-22T00:42:29.641Z,9.48
2023-04-22T00:46:45.882Z,10.70
2023-04-22T00:50:58.347Z,7.75
2023-04-22T00:55:12.169Z,13.27
2023-04-22T00:59:25.950Z,9.52
2023-04-22T01:03:40.312Z,11.18
2023-04-22T01:07:53.104Z,11.60
2023-04-22T01:12:06.110Z,10.63
2023-04-22T01:16:19.450Z,8.15
2023-04-22T01:20:32.219Z,12.52
2023-04-22T01:24:44.643Z,12.30
2023-04-22T01:28:57.237Z,13.77
2023-04-22T01:33:10.779Z,10.90
2023-04-22T01:37:23.421Z,9.85
2023-04-22T01:41:36.135Z,10.00
2023-04-22T01:45:48.468Z,12.30
2023-04-22T01:50:00.892Z,11.50
2023-04-22T01:54:13.490Z,10.18
2023-04-22T01:58:28.985Z,10.52
2023-04-22T02:02:42.622Z,10.00
2023-04-22T02:06:55.039Z,9.52
2023-04-22T02:11:07.363Z,13.50
2023-04-22T02:15:20.240Z,13.18
2023-04-22T02:19:32.821Z,11.52
2023-04-22T02:23:46.804Z,12.68
2023-04-22T02:27:59.182Z,10.27
2023-04-22T02:32:11.761Z,11.85
2023-04-22T02:36:25.432Z,9.63
2023-04-22T02:40:37.930Z,10.18
2023-04-22T02:44:52.029Z,11.35
2023-04-22T02:49:05.746Z,10.63
2023-04-22T02:53:18.009Z,10.55
2023-04-22T02:57:30.508Z,13.38
2023-04-22T03:01:42.951Z,11.40
2023-04-22T03:06:01.726Z,12.43
2023-04-22T03:10:14.048Z,13.48
2023-04-22T03:14:26.695Z,14.93
2023-04-22T03:18:39.460Z,12.93
2023-04-22T03:22:52.380Z,11.05
2023-04-22T03:27:05.626Z,9.95
2023-04-22T03:31:18.102Z,12.05
2023-04-22T03:35:31.791Z,11.38
2023-04-22T03:39:46.296Z,11.55
2023-04-22T03:44:01.633Z,11.77
2023-04-22T03:48:15.715Z,12.15
2023-04-22T03:52:33.172Z,13.30
2023-04-22T03:56:47.769Z,10.50
2023-04-22T04:01:00.801Z,9.88
2023-04-22T04:05:14.177Z,9.05
2023-04-22T04:09:27.660Z,10.43
2023-04-22T04:13:39.978Z,9.98
2023-04-22T04:18:21.859Z,8.52
2023-04-22T04:22:35.708Z,8.85
2023-04-22T04:26:49.275Z,10.68
2023-04-22T04:31:06.883Z,13.77
2023-04-22T04:35:20.641Z,9.80
2023-04-22T04:39:37.311Z,10.23
2023-04-22T04:43:52.143Z,8.88
2023-04-22T04:48:15.692Z,10.90
2023-04-22T04:52:35.952Z,9.48
2023-04-22T04:56:48.794Z,8.02
2023-04-22T05:01:01.129Z,10.57
2023-04-22T05:05:14.091Z,9.80
2023-04-22T05:09:28.571Z,14.27
2023-04-22T05:13:41.103Z,10.45
2023-04-22T05:17:57.354Z,11.35
2023-04-22T05:22:11.573Z,18.15
2023-04-22T05:26:24.109Z,21.40
2023-04-22T05:30:36.887Z,20.52
2023-04-22T05:34:49.437Z,13.43
2023-04-22T05:39:01.866Z,13.25
2023-04-22T05:43:16.094Z,16.17
2023-04-22T05:47:33.934Z,15.73
2023-04-22T05:51:46.782Z,13.65
2023-04-22T05:56:02.670Z,15.93
2023-04-22T06:00:15.888Z,15.95
2023-04-22T06:04:38.062Z,14.32
2023-04-22T06:08:51.406Z,14.63
2023-04-22T06:13:03.944Z,15.40
2023-04-22T06:17:16.361Z,13.75
2023-04-22T06:21:29.018Z,14.82
2023-04-22T06:25:42.408Z,15.45
2023-04-22T06:29:55.152Z,14.48
2023-04-22T06:34:07.581Z,11.50
2023-04-22T06:38:20.787Z,9.65
2023-04-22T06:43:00.123Z,11.18
2023-04-22T06:47:28.305Z,12.35
2023-04-22T06:51:54.892Z,10.15
2023-04-22T06:56:07.394Z,11.18
2023-04-22T07:00:19.856Z,13.02
2023-04-22T07:04:32.804Z,11.55
2023-04-22T07:08:46.032Z,12.75
2023-04-22T07:12:58.369Z,12.32
2023-04-22T07:17:11.943Z,12.63
2023-04-22T07:21:24.311Z,10.27
2023-04-22T07:25:36.791Z,11.60
2023-04-22T07:29:49.156Z,14.80
2023-04-22T07:34:01.615Z,12.35
2023-04-22T07:38:14.680Z,13.27
2023-04-22T07:42:27.268Z,8.52
2023-04-22T07:46:40.253Z,7.07
2023-04-22T07:50:52.623Z,11.02
2023-04-22T07:55:05.464Z,10.32
2023-04-22T07:59:17.673Z,9.20
2023-04-22T08:03:30.133Z,11.40
2023-04-22T08:07:42.829Z,14.35
2023-04-22T08:11:55.292Z,9.32
2023-04-22T08:16:07.969Z,8.45
2023-04-22T08:20:20.588Z,13.55
2023-04-22T08:24:33.029Z,7.20
2023-04-22T08:28:45.504Z,8.82
2023-04-22T08:32:57.903Z,13.52
2023-04-22T08:37:10.449Z,8.40
2023-04-22T08:41:24.873Z,9.32
2023-04-22T08:45:40.175Z,9.68
2023-04-22T08:49:55.396Z,7.97
2023-04-22T08:54:07.825Z,7.60
2023-04-22T08:58:20.339Z,8.68
2023-04-22T09:02:33.675Z,7.10
2023-04-22T09:06:46.304Z,9.75
2023-04-22T09:10:59.670Z,5.88
2023-04-22T09:15:12.697Z,8.25
2023-04-22T09:19:25.937Z,9.18
2023-04-22T09:23:50.484Z,6.45
2023-04-22T09:28:03.562Z,6.68
2023-04-22T09:32:16.696Z,5.78
2023-04-22T09:36:30.537Z,7.43
2023-04-22T09:40:44.591Z,8.15
2023-04-22T09:45:01.257Z,7.70
2023-04-22T09:49:16.923Z,8.57
2023-04-22T09:53:30.249Z,9.65
2023-04-22T09:57:43.880Z,7.15
2023-04-22T10:01:59.095Z,7.50
2023-04-22T10:06:12.497Z,7.50
2023-04-22T10:10:25.032Z,8.25
2023-04-22T10:14:37.501Z,10.65
2023-04-22T10:18:51.269Z,9.85
2023-04-22T10:23:06.315Z,6.32
2023-04-22T10:27:22.690Z,5.97
2023-04-22T10:31:35.415Z,7.07
2023-04-22T10:36:08.706Z,7.10
2023-04-22T10:40:23.091Z,6.75
2023-04-22T10:44:54.711Z,4.53
2023-04-22T10:49:11.707Z,6.65
2023-04-22T10:53:50.529Z,6.20
2023-04-22T10:58:03.023Z,5.72
2023-04-22T11:02:16.752Z,6.78
2023-04-22T11:06:30.571Z,5.43
2023-04-22T11:10:45.916Z,4.68
2023-04-22T11:14:59.327Z,7.05
2023-04-22T11:19:11.658Z,6.22
2023-04-22T11:23:28.432Z,8.95
2023-04-22T11:27:43.764Z,5.82
2023-04-22T11:31:57.901Z,7.45
2023-04-22T11:36:14.067Z,6.20
2023-04-22T11:40:33.324Z,7.60
2023-04-22T11:44:47.710Z,7.18
2023-04-22T11:49:14.086Z,6.00
2023-04-22T11:53:26.626Z,7.20
2023-04-22T11:57:39.264Z,6.82
2023-04-22T12:01:52.746Z,6.03
2023-04-22T12:06:05.782Z,5.70
2023-04-22T12:10:18.157Z,9.43
2023-04-22T12:14:34.749Z,6.25
2023-04-22T12:18:52.306Z,14.43
2023-04-22T12:23:04.795Z,8.52
2023-04-22T12:27:17.392Z,8.43
2023-04-22T12:31:29.907Z,7.35
2023-04-22T12:35:42.570Z,9.00
2023-04-22T12:39:55.006Z,9.98
2023-04-22T12:44:08.565Z,9.02
2023-04-22T12:48:21.189Z,8.93
2023-04-22T12:52:35.490Z,12.05
2023-04-22T12:56:48.864Z,9.73
2023-04-22T13:01:01.276Z,8.25
2023-04-22T13:05:14.242Z,8.95
2023-04-22T13:09:27.525Z,10.32
2023-04-22T13:13:39.823Z,7.78
2023-04-22T13:17:52.602Z,6.15
2023-04-22T13:22:05.053Z,7.63
2023-04-22T13:26:17.461Z,9.07
2023-04-22T13:30:29.800Z,8.15
2023-04-22T13:34:42.192Z,7.68
2023-04-22T13:38:54.664Z,7.80
2023-04-22T13:43:09.621Z,6.65
2023-04-22T13:47:22.090Z,8.48
2023-04-22T13:51:35.123Z,12.07
2023-04-22T13:55:47.505Z,5.80
2023-04-22T14:00:00.196Z,7.95
2023-04-22T14:04:13.933Z,10.43
2023-04-22T14:08:26.672Z,11.52
2023-04-22T14:12:41.619Z,7.20
2023-04-22T14:16:54.072Z,12.88
2023-04-22T14:21:09.575Z,7.40
2023-04-22T14:25:22.159Z,7.15
2023-04-22T14:29:34.587Z,9.27
2023-04-22T14:33:47.049Z,7.95
2023-04-22T14:37:59.533Z,7.78
2023-04-22T14:42:11.848Z,9.55
2023-04-22T14:46:24.451Z,6.82
2023-04-22T14:50:36.987Z,6.75
2023-04-22T14:54:51.808Z,8.02
2023-04-22T14:59:04.535Z,5.88
2023-04-22T15:03:17.088Z,6.00
2023-04-22T15:07:29.659Z,7.05
2023-04-22T15:11:42.165Z,10.27
2023-04-22T15:15:54.657Z,8.60
2023-04-22T15:20:09.226Z,8.75
2023-04-22T15:24:21.852Z,12.65
2023-04-22T15:28:34.247Z,9.18
2023-04-22T15:32:46.668Z,9.00
2023-04-22T15:36:58.989Z,6.97
2023-04-22T15:41:11.388Z,6.53
2023-04-22T15:45:23.772Z,4.90
2023-04-22T15:49:38.640Z,7.32
2023-04-22T15:53:51.156Z,8.85
2023-04-22T15:58:03.421Z,5.32
2023-04-22T16:02:15.932Z,7.45
2023-04-22T16:06:28.395Z,7.15
2023-04-22T16:10:40.788Z,8.05
2023-04-22T16:14:53.291Z,8.95
2023-04-22T16:19:05.707Z,13.90
2023-04-22T16:23:18.071Z,9.13
2023-04-22T16:27:31.142Z,10.50
2023-04-22T16:31:44.101Z,6.60
2023-04-22T16:35:56.515Z,7.53
2023-04-22T16:40:09.502Z,7.65
2023-04-22T16:44:21.794Z,11.80
2023-04-22T16:48:34.129Z,10.95
2023-04-22T16:52:46.542Z,9.60
2023-04-22T16:56:58.913Z,10.48
2023-04-22T17:01:11.371Z,7.60
2023-04-22T17:05:23.800Z,8.45
2023-04-22T17:09:36.252Z,10.45
2023-04-22T17:13:48.631Z,11.18
2023-04-22T17:18:02.234Z,10.57
2023-04-22T17:22:14.643Z,11.85
2023-04-22T17:26:27.109Z,8.13
2023-04-22T17:30:39.628Z,9.18
2023-04-22T17:34:52.111Z,13.40
2023-04-22T17:39:04.580Z,12.88
2023-04-22T17:43:16.842Z,14.57
2023-04-22T17:47:29.893Z,15.80
2023-04-22T17:51:43.347Z,16.48
2023-04-22T17:55:55.807Z,14.40
2023-04-22T18:00:08.871Z,11.18
2023-04-22T18:04:24.208Z,12.80
2023-04-22T18:08:36.666Z,11.82
2023-04-22T18:12:50.021Z,20.30
2023-04-22T18:17:03.293Z,16.45
2023-04-22T18:21:15.932Z,18.35
2023-04-22T18:25:28.245Z,18.30
2023-04-22T18:29:40.864Z,17.23
2023-04-22T18:33:53.395Z,18.65
2023-04-22T18:38:06.924Z,17.23
2023-04-22T18:42:19.317Z,21.17
2023-04-22T18:46:31.823Z,19.38
2023-04-22T18:50:44.215Z,19.13
2023-04-22T18:54:57.946Z,17.23
2023-04-22T18:59:10.618Z,18.25
2023-04-22T19:03:27.003Z,22.45
2023-04-22T19:07:42.482Z,17.25
2023-04-22T19:11:56.348Z,22.08
2023-04-22T19:16:08.778Z,16.02
2023-04-22T19:20:21.306Z,23.77
2023-04-22T19:24:35.563Z,23.67
2023-04-22T19:28:49.010Z,15.70
2023-04-22T19:33:02.089Z,18.70
2023-04-22T19:37:14.655Z,18.45
2023-04-22T19:41:27.142Z,24.67
2023-04-22T19:45:39.543Z,19.25
2023-04-22T19:49:52.287Z,21.25
2023-04-22T19:54:05.385Z,20.88
2023-04-22T19:58:17.895Z,18.83
2023-04-22T20:02:30.696Z,23.15
2023-04-22T20:06:48.754Z,20.77
2023-04-22T20:11:01.401Z,21.05
2023-04-22T20:15:14.316Z,17.50
2023-04-22T20:19:28.617Z,24.88
2023-04-22T20:23:42.434Z,23.40
2023-04-22T20:27:56.576Z,21.20
2023-04-22T20:32:09.835Z,18.80
2023-04-22T20:36:24.468Z,23.60
2023-04-22T20:40:38.339Z,25.20
2023-04-22T20:44:50.663Z,21.42
2023-04-22T20:49:03.020Z,20.45
2023-04-22T20:53:15.342Z,20.42
2023-04-22T20:57:27.803Z,20.13
2023-04-22T21:01:41.275Z,18.83
2023-04-22T21:05:54.187Z,18.85
2023-04-22T21:10:07.642Z,15.32
2023-04-22T21:14:22.440Z,17.50
2023-04-22T21:18:37.182Z,19.27
2023-04-22T21:22:49.705Z,17.00
2023-04-22T21:27:03.224Z,15.50
2023-04-22T21:31:16.317Z,18.58
2023-04-22T21:35:28.816Z,17.67
2023-04-22T21:39:41.440Z,16.63
2023-04-22T21:43:53.912Z,19.23
2023-04-22T21:48:06.328Z,17.92
2023-04-22T21:52:19.208Z,20.27
2023-04-22T21:56:34.611Z,17.67
2023-04-22T22:00:46.982Z,24.58
2023-04-22T22:04:59.340Z,21.02
2023-04-22T22:09:12.685Z,21.92
2023-04-22T22:13:25.291Z,19.23
2023-04-22T22:17:38.486Z,18.80
2023-04-22T22:21:51.558Z,22.05
2023-04-22T22:26:04.023Z,22.02
2023-04-22T22:30:17.500Z,17.10
2023-04-22T22:34:29.938Z,18.00
2023-04-22T22:38:42.283Z,19.55
2023-04-22T22:42:57.526Z,17.67
2023-04-22T22:47:11.199Z,16.35
2023-04-22T22:51:23.616Z,16.38
2023-04-22T22:55:36.045Z,15.05
2023-04-22T22:59:48.586Z,14.90
2023-04-22T23:04:01.128Z,16.10
2023-04-22T23:08:13.724Z,14.18
2023-04-22T23:12:26.300Z,13.48
2023-04-22T23:16:38.992Z,10.57
2023-04-22T23:20:52.232Z,12.55
2023-04-22T23:25:05.290Z,11.38
2023-04-22T23:29:19.148Z,10.75
2023-04-22T23:33:32.885Z,14.60
2023-04-22T23:37:48.339Z,10.60
2023-04-22T23:42:01.393Z,16.13
2023-04-22T23:46:15.263Z,19.48
2023-04-22T23:50:30.300Z,14.55
2023-04-22T23:54:44.792Z,12.82
2023-04-22T23:58:57.926Z,12.13
